Time;durP1;ratioP1;P1;durP2;ratioP2;P2;SDS_P1;SDS_P2;PMS_P1;PMS_P2;Temp;Humidity;BMP_temperature;BMP_pressure;BME280_temperature;BME280_humidity;BME280_pressure;Samples;Min_cycle;Max_cycle;Signal;HPM_P1;HPM_P2
2021/06/11 02:47:36;;;;;;;5.93;5.18;;;15.20;99.90;;;;;;5406195;22;94269;-78
2021/06/11 02:50:16;;;;;;;5.00;4.50;;;14.90;99.90;;;;;;4924288;28;91737;-78
2021/06/11 02:52:56;;;;;;;7.32;4.93;;;15.30;99.90;;;;;;4920978;28;97478;-78
2021/06/11 02:55:23;;;;;;;6.63;5.20;;;;;;;;;;4923597;28;91850;-78
2021/06/11 03:01:12;;;;;;;7.65;5.35;;;13.60;99.90;;;;;;4922520;28;91692;-77
2021/06/11 03:03:39;;;;;;;7.50;5.55;;;15.00;99.90;;;;;;4926306;28;92691;-78
2021/06/11 03:06:06;;;;;;;5.75;5.05;;;14.20;99.90;;;;;;4924927;28;93008;-78
2021/06/11 03:08:35;;;;;;;5.90;4.90;;;14.30;99.90;;;;;;4946398;28;91825;-78
2021/06/11 03:11:09;;;;;;;8.32;5.88;;;14.60;99.90;;;;;;4946380;28;92121;-78
2021/06/11 03:13:35;;;;;;;6.90;5.40;;;13.50;99.90;;;;;;4946319;28;92258;-78
2021/06/11 03:16:03;;;;;;;7.85;5.47;;;14.80;99.90;;;;;;4933350;28;91739;-78
2021/06/11 03:18:30;;;;;;;7.18;5.45;;;14.30;99.90;;;;;;4925380;28;92562;-78
2021/06/11 03:21:01;;;;;;;5.75;5.05;;;14.10;99.90;;;;;;4911309;28;91365;-79
2021/06/11 03:23:39;;;;;;;6.13;5.50;;;14.50;99.90;;;;;;4910569;28;92327;-78
2021/06/11 03:26:07;;;;;;;5.95;5.03;;;14.40;99.90;;;;;;4925901;28;91852;-78
2021/06/11 03:28:33;;;;;;;9.65;6.20;;;;;;;;;;4926331;28;93083;-78
2021/06/11 03:31:02;;;;;;;6.03;5.13;;;14.50;99.90;;;;;;4920788;28;92056;-86
2021/06/11 03:33:35;;;;;;;5.55;4.90;;;14.30;99.90;;;;;;4924115;28;92672;-86
2021/06/11 03:36:10;;;;;;;5.85;5.20;;;14.30;99.90;;;;;;4916305;28;93358;-87
2021/06/11 03:38:38;;;;;;;7.78;4.85;;;14.30;99.90;;;;;;4929686;28;91760;-89
2021/06/11 03:41:04;;;;;;;6.65;4.70;;;14.30;99.90;;;;;;4932551;28;91829;-88
2021/06/11 03:43:32;;;;;;;5.70;5.20;;;14.30;99.90;;;;;;4935025;28;93380;-88
2021/06/11 03:46:00;;;;;;;6.97;5.03;;;14.20;99.90;;;;;;4932977;28;93230;-87
2021/06/11 03:48:27;;;;;;;7.57;4.93;;;14.20;99.90;;;;;;4931148;28;92275;-87
2021/06/11 03:50:53;;;;;;;6.72;5.18;;;14.20;99.90;;;;;;4918526;28;91665;-86
2021/06/11 03:53:23;;;;;;;5.68;5.03;;;14.30;99.90;;;;;;4937765;28;95377;-86
2021/06/11 03:56:35;;;;;;;6.13;4.80;;;14.40;99.90;;;;;;4940619;28;94091;-87
2021/06/11 03:59:03;;;;;;;4.97;4.43;;;14.50;99.90;;;;;;4920075;28;91865;-86
2021/06/11 04:01:32;;;;;;;6.57;5.13;;;14.50;99.90;;;;;;4940341;28;91498;-85
2021/06/11 04:04:00;;;;;;;6.50;5.65;;;14.60;99.90;;;;;;4926264;28;94778;-89
2021/06/11 04:06:31;;;;;;;6.18;5.05;;;14.60;99.90;;;;;;4928963;28;91957;-85
2021/06/11 04:09:21;;;;;;;6.03;5.05;;;14.70;99.90;;;;;;4927152;28;91651;-89
2021/06/11 04:11:55;;;;;;;5.70;5.10;;;14.70;99.90;;;;;;4920282;28;91282;-88
2021/06/11 04:14:27;;;;;;;5.85;5.25;;;14.70;99.90;;;;;;4933198;28;91983;-85
2021/06/11 04:16:57;;;;;;;5.32;4.70;;;14.70;99.90;;;;;;4920040;28;91796;-87
2021/06/11 04:19:33;;;;;;;7.78;4.90;;;14.80;99.90;;;;;;4930800;28;93690;-87
2021/06/11 04:22:01;;;;;;;6.68;4.80;;;14.80;99.90;;;;;;4921377;28;91811;-87
2021/06/11 04:24:32;;;;;;;5.30;4.65;;;14.80;99.90;;;;;;4914868;28;91999;-88
2021/06/11 04:26:59;;;;;;;6.43;4.63;;;14.80;99.90;;;;;;4907889;28;93829;-87
2021/06/11 04:29:31;;;;;;;6.40;5.15;;;14.90;99.90;;;;;;4930563;28;91962;-88
2021/06/11 04:31:58;;;;;;;6.65;5.30;;;14.80;99.90;;;;;;4930911;28;91733;-88
2021/06/11 04:34:24;;;;;;;6.03;4.72;;;14.90;99.90;;;;;;4898731;28;94697;-89
2021/06/11 04:36:51;;;;;;;7.32;4.68;;;14.80;99.90;;;;;;4921936;28;93064;-89
2021/06/11 04:39:17;;;;;;;6.03;4.57;;;14.80;99.90;;;;;;4935936;28;91798;-87
2021/06/11 04:41:43;;;;;;;8.55;6.05;;;14.90;99.90;;;;;;4931339;28;91676;-87
2021/06/11 04:44:09;;;;;;;7.68;5.25;;;14.90;99.90;;;;;;4929604;28;93716;-85
2021/06/11 04:46:36;;;;;;;5.93;5.25;;;14.90;99.90;;;;;;4945096;28;93365;-85
2021/06/11 04:49:02;;;;;;;7.38;5.53;;;14.90;99.90;;;;;;4934868;28;91312;-87
2021/06/11 04:51:28;;;;;;;6.63;5.00;;;15.00;99.90;;;;;;4935347;28;91271;-84
2021/06/11 04:53:54;;;;;;;5.75;4.68;;;15.00;99.90;;;;;;4940194;28;92703;-88
2021/06/11 04:56:19;;;;;;;6.97;5.70;;;15.00;99.90;;;;;;4942567;28;91154;-86
2021/06/11 04:58:51;;;;;;;5.78;5.10;;;15.10;99.90;;;;;;4938224;28;91716;-85
2021/06/11 05:01:16;;;;;;;7.03;5.40;;;15.20;99.90;;;;;;4913485;28;91328;-85
2021/06/11 05:03:43;;;;;;;6.47;5.38;;;15.30;99.90;;;;;;4924169;28;93182;-85
2021/06/11 05:06:09;;;;;;;5.68;5.15;;;15.40;99.90;;;;;;4915883;28;92389;-85
2021/06/11 05:08:35;;;;;;;6.32;5.57;;;15.40;99.90;;;;;;4913782;28;92791;-81
2021/06/11 05:11:02;;;;;;;6.72;5.70;;;15.50;99.90;;;;;;4909473;28;91338;-81
2021/06/11 05:13:28;;;;;;;5.70;5.20;;;15.60;99.90;;;;;;4906434;28;92196;-80
2021/06/11 05:15:54;;;;;;;7.75;5.57;;;15.70;99.90;;;;;;4926215;28;91865;-82
2021/06/11 05:18:20;;;;;;;6.28;5.68;;;15.80;99.90;;;;;;4927036;28;91885;-84
2021/06/11 05:20:46;;;;;;;8.50;5.90;;;15.90;99.90;;;;;;4926462;28;91305;-82
2021/06/11 05:23:11;;;;;;;6.05;5.45;;;16.10;99.90;;;;;;4909270;28;94850;-82
2021/06/11 05:26:11;;;;;;;6.65;5.18;;;16.20;99.90;;;;;;4927961;28;92639;-83
2021/06/11 05:28:37;;;;;;;7.88;5.68;;;16.40;99.90;;;;;;4910574;28;91428;-83
2021/06/11 05:34:10;;;;;;;8.82;5.60;;;16.70;99.90;;;;;;4908060;28;93485;-84
2021/06/11 05:36:58;;;;;;;7.80;6.35;;;16.80;99.90;;;;;;4929131;28;92207;-84
2021/06/11 05:39:23;;;;;;;8.43;5.72;;;16.90;99.90;;;;;;4929714;28;91730;-85
2021/06/11 05:41:49;;;;;;;6.80;5.32;;;17.00;99.90;;;;;;4936725;28;91683;-85
2021/06/11 05:44:15;;;;;;;6.07;5.38;;;17.10;99.90;;;;;;4926620;28;92386;-85
2021/06/11 05:46:40;;;;;;;5.70;5.20;;;17.20;99.90;;;;;;4926967;28;92408;-85
2021/06/11 05:49:06;;;;;;;6.53;5.43;;;17.30;99.90;;;;;;4923666;28;91743;-86
2021/06/11 05:51:32;;;;;;;6.40;5.25;;;17.40;99.90;;;;;;4922998;28;91015;-85
2021/06/11 05:53:58;;;;;;;10.32;6.18;;;17.50;99.90;;;;;;4921551;28;91804;-85
2021/06/11 05:56:24;;;;;;;7.35;6.13;;;17.50;99.90;;;;;;4921374;28;91809;-84
2021/06/11 05:58:50;;;;;;;7.70;6.22;;;17.50;99.90;;;;;;4935085;28;93078;-84
2021/06/11 06:01:16;;;;;;;7.82;5.88;;;17.50;99.90;;;;;;4931346;28;92064;-86
2021/06/11 06:03:42;;;;;;;7.53;6.40;;;17.50;99.90;;;;;;4926463;28;91983;-85
2021/06/11 06:06:08;;;;;;;7.85;5.93;;;17.50;99.90;;;;;;4917664;28;92026;-85
2021/06/11 06:08:34;;;;;;;6.68;5.38;;;17.60;99.90;;;;;;4930486;28;92036;-83
2021/06/11 06:10:59;;;;;;;8.48;5.80;;;17.70;99.90;;;;;;4929817;28;91941;-84
2021/06/11 06:13:25;;;;;;;7.72;6.05;;;17.80;99.90;;;;;;4925514;28;92566;-84
2021/06/11 06:15:51;;;;;;;6.55;5.20;;;17.90;99.90;;;;;;4916286;28;91315;-85
2021/06/11 06:18:16;;;;;;;7.13;6.13;;;18.00;99.90;;;;;;4915218;28;91759;-85
2021/06/11 06:20:46;;;;;;;6.10;5.35;;;18.10;99.90;;;;;;4913392;28;91709;-85
2021/06/11 06:23:12;;;;;;;6.38;5.50;;;18.30;99.90;;;;;;4919556;28;94265;-82
2021/06/11 06:25:38;;;;;;;5.20;4.70;;;18.40;99.90;;;;;;4918915;28;92130;-83
2021/06/11 06:28:04;;;;;;;4.85;4.38;;;18.50;99.90;;;;;;4924561;28;92084;-84
2021/06/11 06:30:30;;;;;;;6.07;4.53;;;18.50;99.90;;;;;;4924919;28;91907;-83
2021/06/11 06:32:56;;;;;;;6.22;4.45;;;18.60;99.90;;;;;;4920370;28;92726;-83
2021/06/11 06:35:22;;;;;;;4.78;4.28;;;18.80;99.90;;;;;;4921100;28;92121;-84
2021/06/11 06:37:48;;;;;;;7.97;4.82;;;18.80;99.90;;;;;;4931185;28;91920;-84
2021/06/11 06:40:14;;;;;;;7.15;4.53;;;18.90;99.90;;;;;;4918901;28;91242;-85
2021/06/11 06:42:41;;;;;;;5.63;4.43;;;18.90;99.90;;;;;;4931355;28;93170;-85
2021/06/11 06:45:13;;;;;;;5.60;4.57;;;19.00;99.90;;;;;;4920307;28;92251;-84
2021/06/11 06:47:44;;;;;;;5.10;4.60;;;19.10;99.90;;;;;;4930652;28;92865;-84
2021/06/11 06:50:18;;;;;;;4.68;4.10;;;19.30;99.90;;;;;;4921715;28;92412;-85
2021/06/11 06:52:44;;;;;;;5.28;4.60;;;19.40;99.90;;;;;;4926048;28;91929;-83
2021/06/11 06:55:11;;;;;;;6.80;4.82;;;19.40;99.90;;;;;;4931745;28;92002;-84
2021/06/11 06:57:37;;;;;;;6.50;5.90;;;19.00;99.90;;;;;;4930917;28;92004;-84
2021/06/11 07:00:07;;;;;;;5.20;4.70;;;19.70;99.90;;;;;;4930495;28;92173;-84
2021/06/11 07:02:34;;;;;;;7.30;4.45;;;19.80;99.90;;;;;;4917149;28;91986;-85
2021/06/11 07:05:00;;;;;;;5.72;4.80;;;19.90;99.90;;;;;;4919104;28;91990;-83
2021/06/11 07:07:26;;;;;;;5.82;5.22;;;20.00;99.90;;;;;;4932032;28;92035;-82
2021/06/11 07:09:51;;;;;;;5.63;4.60;;;20.00;99.20;;;;;;4934119;28;91511;-83
2021/06/11 07:12:17;;;;;;;5.22;4.70;;;20.00;99.00;;;;;;4934356;28;93344;-83
2021/06/11 07:14:43;;;;;;;9.30;4.53;;;20.20;99.60;;;;;;4929613;28;92867;-84
2021/06/11 07:17:08;;;;;;;5.57;4.72;;;20.30;99.90;;;;;;4934060;28;91821;-83
2021/06/11 07:19:34;;;;;;;4.90;4.40;;;20.30;99.40;;;;;;4931615;28;91634;-83
2021/06/11 07:22:02;;;;;;;5.05;4.60;;;20.50;99.90;;;;;;4930535;28;92251;-83
2021/06/11 07:24:28;;;;;;;5.10;4.70;;;20.60;98.10;;;;;;4928013;28;92096;-83
2021/06/11 07:26:54;;;;;;;6.40;4.47;;;20.80;97.90;;;;;;4932509;28;91915;-84
2021/06/11 07:29:19;;;;;;;4.43;3.85;;;20.80;97.40;;;;;;4927016;28;90918;-85
2021/06/11 07:31:45;;;;;;;5.20;4.00;;;21.00;97.50;;;;;;4920176;28;91935;-84
2021/06/11 07:34:11;;;;;;;5.55;4.60;;;21.10;96.40;;;;;;4933160;28;91994;-83
2021/06/11 07:36:36;;;;;;;4.80;4.40;;;21.20;96.40;;;;;;4930700;28;92901;-84
2021/06/11 07:39:03;;;;;;;6.03;4.80;;;21.20;95.90;;;;;;4928201;28;91954;-84
2021/06/11 07:41:28;;;;;;;4.97;4.47;;;21.50;96.80;;;;;;4933563;28;92822;-84
2021/06/11 07:43:54;;;;;;;6.15;4.90;;;21.60;95.90;;;;;;4928683;28;91457;-84
2021/06/11 07:46:20;;;;;;;6.10;4.65;;;21.70;93.20;;;;;;4927653;28;92253;-85
2021/06/11 07:48:48;;;;;;;5.40;4.53;;;21.70;93.80;;;;;;4927275;28;91624;-83
2021/06/11 07:51:14;;;;;;;5.00;4.50;;;21.80;94.30;;;;;;4923584;28;92249;-84
2021/06/11 07:53:41;;;;;;;6.60;5.05;;;21.90;94.00;;;;;;4926654;28;91211;-84
2021/06/11 07:56:08;;;;;;;5.68;4.30;;;22.00;93.70;;;;;;4935179;28;91362;-83
2021/06/11 07:58:33;;;;;;;5.68;5.18;;;22.10;94.20;;;;;;4924127;28;91779;-84
2021/06/11 08:00:59;;;;;;;5.78;5.15;;;22.30;94.70;;;;;;4917808;28;93049;-84
2021/06/11 08:03:25;;;;;;;5.30;4.80;;;22.60;94.40;;;;;;4917116;28;92891;-85
2021/06/11 08:05:51;;;;;;;6.05;5.15;;;22.70;94.00;;;;;;4927576;28;91875;-84
2021/06/11 08:08:16;;;;;;;5.72;4.90;;;22.90;95.20;;;;;;4936444;28;92139;-85
2021/06/11 08:10:42;;;;;;;5.90;5.30;;;23.20;94.80;;;;;;4935617;28;91764;-85
2021/06/11 08:13:08;;;;;;;6.18;5.63;;;23.30;95.00;;;;;;4935383;28;92241;-84
2021/06/11 08:15:35;;;;;;;6.75;5.50;;;23.50;95.00;;;;;;4928949;28;92428;-85
2021/06/11 08:18:02;;;;;;;6.88;6.18;;;23.70;94.60;;;;;;4934498;28;91076;-86
2021/06/11 08:20:28;;;;;;;6.25;5.65;;;23.70;93.80;;;;;;4934767;28;91733;-86
2021/06/11 08:22:54;;;;;;;6.45;5.40;;;23.90;93.20;;;;;;4930974;28;92604;-88
2021/06/11 08:25:22;;;;;;;8.95;7.10;;;;;;;;;;4929267;28;93016;-87
2021/06/11 08:27:48;;;;;;;5.72;5.22;;;24.10;92.60;;;;;;4931268;28;91911;-87
2021/06/11 08:30:14;;;;;;;6.00;5.40;;;24.30;93.30;;;;;;4930760;28;91867;-85
2021/06/11 08:36:03;;;;;;;6.28;5.55;;;24.40;91.90;;;;;;4924854;28;91158;-86
2021/06/11 08:38:29;;;;;;;7.38;5.60;;;24.60;92.50;;;;;;4916028;28;92080;-87
2021/06/11 08:40:54;;;;;;;6.00;5.50;;;24.80;92.20;;;;;;4929811;28;92432;-86
2021/06/11 08:43:21;;;;;;;8.57;5.72;;;24.90;92.10;;;;;;4934297;28;91985;-87
2021/06/11 08:45:48;;;;;;;6.38;5.82;;;25.00;91.60;;;;;;4927171;28;91847;-86
2021/06/11 08:48:14;;;;;;;5.85;5.18;;;25.10;90.50;;;;;;4919488;28;92050;-84
2021/06/11 08:50:43;;;;;;;6.97;5.68;;;25.30;91.20;;;;;;4934203;28;93122;-85
2021/06/11 08:53:10;;;;;;;7.57;5.63;;;25.50;90.70;;;;;;4929867;28;92953;-85
2021/06/11 08:55:36;;;;;;;8.65;6.38;;;25.70;90.50;;;;;;4916456;28;91732;-85
2021/06/11 08:58:04;;;;;;;6.70;6.03;;;26.00;90.70;;;;;;4921642;28;92879;-86
2021/06/11 09:00:32;;;;;;;6.70;6.10;;;26.10;90.60;;;;;;4935383;28;92696;-85
2021/06/11 09:03:25;;;;;;;9.15;7.07;;;26.30;90.00;;;;;;4934646;28;91846;-86
2021/06/11 09:06:00;;;;;;;8.20;7.40;;;26.70;86.60;;;;;;4915856;28;91939;-87
2021/06/11 09:08:28;;;;;;;6.65;6.05;;;26.90;84.60;;;;;;4922437;28;91165;-88
2021/06/11 09:11:14;;;;;;;7.93;7.20;;;27.30;84.60;;;;;;4926883;28;92436;-86
2021/06/11 09:13:42;;;;;;;10.27;7.25;;;27.70;83.00;;;;;;4926155;28;93238;-86
2021/06/11 09:16:14;;;;;;;8.85;8.10;;;28.20;82.70;;;;;;4935816;28;92123;-87
2021/06/11 09:18:51;;;;;;;8.07;7.18;;;28.80;77.20;;;;;;4923001;28;91928;-87
2021/06/11 09:21:32;;;;;;;7.75;7.15;;;29.80;75.70;;;;;;4919668;28;91999;-87
2021/06/11 09:26:58;;;;;;;7.63;7.07;;;31.10;67.30;;;;;;4920592;28;92147;-88
2021/06/11 09:29:32;;;;;;;8.50;7.90;;;32.10;64.70;;;;;;4923347;28;91982;-85
2021/06/11 09:32:18;;;;;;;9.13;8.38;;;32.30;64.00;;;;;;4916915;28;92393;-84
2021/06/11 09:34:47;;;;;;;8.65;7.95;;;33.50;60.50;;;;;;4919612;28;91350;-86
2021/06/11 09:37:27;;;;;;;7.65;7.05;;;34.50;57.60;;;;;;4921602;28;91936;-87
2021/06/11 09:39:54;;;;;;;9.32;8.52;;;35.40;52.80;;;;;;4927882;28;91736;-85
2021/06/11 09:42:26;;;;;;;7.05;6.45;;;35.70;53.40;;;;;;4926973;28;92921;-87
2021/06/11 09:44:58;;;;;;;7.13;6.60;;;37.00;49.70;;;;;;4926207;28;93740;-86
2021/06/11 09:47:46;;;;;;;8.75;8.15;;;37.90;48.60;;;;;;4918839;28;91850;-87
2021/06/11 09:50:27;;;;;;;7.40;6.70;;;38.70;45.60;;;;;;4917901;28;91441;-87
2021/06/11 09:53:04;;;;;;;8.30;7.60;;;39.20;44.90;;;;;;4929968;28;92819;-87
2021/06/11 09:55:46;;;;;;;7.18;6.57;;;39.20;44.50;;;;;;4926366;28;93013;-83
2021/06/11 09:58:14;;;;;;;7.35;6.78;;;40.30;43.10;;;;;;4918260;28;91830;-86
2021/06/11 10:01:07;;;;;;;9.73;9.02;;;41.30;41.40;;;;;;4928007;28;91222;-86
2021/06/11 10:03:35;;;;;;;8.27;6.15;;;41.80;39.50;;;;;;4930171;28;93693;-86
2021/06/11 10:06:09;;;;;;;6.55;6.05;;;41.80;38.70;;;;;;4931008;28;93006;-87
2021/06/11 10:08:37;;;;;;;7.22;6.72;;;41.70;37.20;;;;;;4929252;28;92638;-87
2021/06/11 10:11:08;;;;;;;6.68;6.28;;;41.60;37.70;;;;;;4933453;28;92156;-87
2021/06/11 10:13:34;;;;;;;6.13;5.70;;;42.40;36.50;;;;;;4938955;28;92552;-86
2021/06/11 10:16:12;;;;;;;8.63;8.13;;;42.90;36.50;;;;;;4936157;28;91867;-86
2021/06/11 10:18:38;;;;;;;6.40;6.00;;;43.50;36.10;;;;;;4935439;28;91869;-82
2021/06/11 10:21:05;;;;;;;8.20;7.72;;;43.70;35.70;;;;;;4936196;28;91749;-87
2021/06/11 10:23:33;;;;;;;9.48;8.73;;;44.10;35.50;;;;;;4936290;28;92253;-85
2021/06/11 10:26:02;;;;;;;18.30;10.65;;;44.20;33.70;;;;;;4937620;28;92537;-85
2021/06/11 10:28:29;;;;;;;;;;;43.90;33.80;;;;;;4937029;28;91704;-84
2021/06/11 10:31:06;;;;;;;8.98;7.95;;;44.50;33.50;;;;;;4933528;28;91997;-86
2021/06/11 10:33:44;;;;;;;8.57;7.88;;;44.90;31.40;;;;;;4929870;28;92901;-87
2021/06/11 10:39:32;;;;;;;6.63;6.03;;;45.90;30.50;;;;;;4933743;28;91882;-86
2021/06/11 10:42:07;;;;;;;7.70;5.95;;;46.00;30.90;;;;;;4934781;28;91926;-84
2021/06/11 10:44:53;;;;;;;6.18;5.78;;;46.20;30.70;;;;;;4931842;28;93235;-84
2021/06/11 10:47:22;;;;;;;6.10;5.70;;;46.50;30.20;;;;;;4929468;28;91930;-84
2021/06/11 10:50:02;;;;;;;7.97;7.47;;;46.70;30.80;;;;;;4930709;28;91803;-85
2021/06/11 10:52:50;;;;;;;6.40;6.00;;;47.40;30.20;;;;;;4932823;28;91153;-85
2021/06/11 10:55:19;;;;;;;8.15;7.75;;;47.70;29.80;;;;;;4931388;28;93609;-84
2021/06/11 10:57:58;;;;;;;5.97;5.68;;;47.80;29.20;;;;;;4931258;28;92710;-83
2021/06/11 11:00:27;;;;;;;8.40;8.00;;;47.80;29.50;;;;;;4928372;28;92660;-85
2021/06/11 11:02:55;;;;;;;8.40;7.90;;;48.00;30.10;;;;;;4926404;28;91303;-82
2021/06/11 11:05:31;;;;;;;6.68;6.18;;;48.40;29.00;;;;;;4926404;28;93629;-84
2021/06/11 11:07:58;;;;;;;8.60;8.10;;;47.90;28.70;;;;;;4923070;28;91958;-85
2021/06/11 11:10:39;;;;;;;9.02;8.52;;;47.30;29.30;;;;;;4891282;28;92496;-82
2021/06/11 11:13:08;;;;;;;10.27;9.43;;;47.40;29.40;;;;;;4921511;28;92440;-85
2021/06/11 11:15:41;;;;;;;10.05;7.82;;;47.50;29.60;;;;;;4919408;28;92788;-86
2021/06/11 11:18:14;;;;;;;10.00;9.38;;;47.80;29.20;;;;;;4915362;28;92112;-82
2021/06/11 11:24:14;;;;;;;7.43;6.85;;;48.80;28.30;;;;;;4930242;28;91709;-85
2021/06/11 11:26:50;;;;;;;9.63;9.02;;;49.00;28.60;;;;;;4929920;28;93999;-84
2021/06/11 11:32:39;;;;;;;9.23;8.73;;;48.70;28.20;;;;;;4921591;28;91893;-84
2021/06/11 11:35:05;;;;;;;9.57;9.07;;;48.90;27.80;;;;;;4934652;28;92090;-85
2021/06/11 11:37:32;;;;;;;9.73;9.13;;;48.90;28.20;;;;;;4925904;28;94976;-84
2021/06/11 11:40:30;;;;;;;9.73;9.13;;;48.90;27.60;;;;;;4918032;28;93021;-83
2021/06/11 11:42:58;;;;;;;8.93;8.43;;;49.00;27.50;;;;;;4919778;28;91619;-83
2021/06/11 11:45:27;;;;;;;9.10;8.60;;;49.00;28.20;;;;;;4933029;28;90986;-83
2021/06/11 11:47:54;;;;;;;8.80;8.40;;;49.40;27.50;;;;;;4928901;28;92072;-84
2021/06/11 11:50:21;;;;;;;9.65;8.95;;;49.60;27.50;;;;;;4934664;28;92872;-84
2021/06/11 11:52:46;;;;;;;8.95;8.45;;;49.40;26.70;;;;;;4933762;28;92343;-83
2021/06/11 11:55:13;;;;;;;9.35;8.85;;;49.50;27.70;;;;;;4935538;28;91134;-83
2021/06/11 12:04:23;;;;;;;10.00;9.45;;;49.20;27.80;;;;;;4910692;28;91881;-84
2021/06/11 12:06:49;;;;;;;9.77;9.07;;;48.60;28.50;;;;;;4932131;28;91826;-84
2021/06/11 12:09:15;;;;;;;7.10;6.70;;;48.30;29.00;;;;;;4933216;28;93501;-84
2021/06/11 12:15:04;;;;;;;9.63;9.02;;;48.30;27.80;;;;;;4931874;28;91843;-84
2021/06/11 12:17:30;;;;;;;9.20;8.70;;;48.00;28.50;;;;;;4939664;28;91764;-84
2021/06/11 12:19:55;;;;;;;8.73;8.30;;;48.10;28.60;;;;;;4928623;28;93137;-85
2021/06/11 12:22:21;;;;;;;10.10;9.48;;;47.90;28.30;;;;;;4916830;28;94317;-84
2021/06/11 12:24:47;;;;;;;9.82;9.15;;;47.50;29.10;;;;;;4921138;28;91661;-84
2021/06/11 12:27:13;;;;;;;9.85;9.18;;;47.60;28.80;;;;;;4926871;28;92187;-83
2021/06/11 12:29:39;;;;;;;9.52;8.95;;;47.80;28.70;;;;;;4929302;28;91747;-84
2021/06/11 12:32:05;;;;;;;9.70;9.10;;;47.60;28.50;;;;;;4921219;28;92000;-85
2021/06/11 12:34:31;;;;;;;9.38;8.77;;;47.60;29.00;;;;;;4918086;28;91959;-85
2021/06/11 12:36:57;;;;;;;9.48;8.98;;;47.20;28.70;;;;;;4926708;28;91047;-85
2021/06/11 12:39:23;;;;;;;9.32;8.82;;;47.20;29.10;;;;;;4918923;28;93373;-85
2021/06/11 12:42:00;;;;;;;7.30;6.80;;;46.90;29.10;;;;;;4923141;28;91808;-85
2021/06/11 12:44:26;;;;;;;9.80;9.30;;;46.40;29.50;;;;;;4925057;28;92907;-84
2021/06/11 12:46:53;;;;;;;9.18;8.68;;;46.50;29.60;;;;;;4924557;28;92182;-84
2021/06/11 12:49:22;;;;;;;9.25;8.65;;;46.10;29.60;;;;;;4923006;28;92090;-85
2021/06/11 12:51:49;;;;;;;8.48;7.93;;;46.10;30.00;;;;;;4923691;28;92071;-85
2021/06/11 12:54:14;;;;;;;9.25;8.75;;;46.40;29.70;;;;;;4930547;28;91827;-85
2021/06/11 12:56:41;;;;;;;9.27;8.68;;;46.40;29.10;;;;;;4932245;28;92052;-84
2021/06/11 12:59:07;;;;;;;8.90;8.40;;;46.50;29.40;;;;;;4926605;28;92410;-85
2021/06/11 13:01:33;;;;;;;9.35;8.85;;;46.40;28.50;;;;;;4931449;28;92181;-84
2021/06/11 13:04:00;;;;;;;9.02;8.52;;;46.60;28.90;;;;;;4927280;28;92267;-84
2021/06/11 13:06:27;;;;;;;8.88;8.35;;;46.00;29.00;;;;;;4932561;28;92028;-85
2021/06/11 13:08:53;;;;;;;8.75;8.35;;;46.10;28.90;;;;;;4926273;28;94313;-85
2021/06/11 13:11:20;;;;;;;8.93;8.52;;;45.90;29.20;;;;;;4929850;28;94181;-86
2021/06/11 13:13:46;;;;;;;8.63;8.05;;;46.00;29.00;;;;;;4931966;28;91456;-85
2021/06/11 13:16:13;;;;;;;8.93;8.43;;;45.70;29.00;;;;;;4923908;28;91949;-85
2021/06/11 13:18:48;;;;;;;8.88;8.38;;;45.50;28.10;;;;;;4935582;28;92782;-84
2021/06/11 13:21:24;;;;;;;9.00;8.40;;;45.30;28.20;;;;;;4917653;28;92186;-83
2021/06/11 13:23:51;;;;;;;9.00;8.40;;;45.00;28.00;;;;;;4922452;28;92110;-86
2021/06/11 13:26:16;;;;;;;8.93;8.43;;;44.80;28.80;;;;;;4925360;28;91148;-86
2021/06/11 13:28:42;;;;;;;8.90;8.40;;;44.40;28.40;;;;;;4925500;28;91768;-86
2021/06/11 13:31:08;;;;;;;9.00;8.48;;;44.10;28.40;;;;;;4924883;28;91987;-84
2021/06/11 13:33:33;;;;;;;8.55;8.00;;;44.10;27.80;;;;;;4922072;28;92867;-83
2021/06/11 13:36:02;;;;;;;8.45;8.05;;;44.00;28.20;;;;;;4922570;28;91458;-84
2021/06/11 13:38:27;;;;;;;8.27;7.77;;;43.80;28.50;;;;;;4921578;28;91969;-84
2021/06/11 13:40:53;;;;;;;8.20;7.80;;;43.50;27.50;;;;;;4917267;28;91666;-84
2021/06/11 13:43:19;;;;;;;8.40;7.90;;;43.10;28.60;;;;;;4920445;28;91928;-84
2021/06/11 13:45:44;;;;;;;8.02;7.63;;;42.60;27.50;;;;;;4919966;28;91825;-84
2021/06/11 13:48:10;;;;;;;8.20;7.60;;;42.50;29.40;;;;;;4917025;28;92100;-83
2021/06/11 13:50:36;;;;;;;8.38;7.88;;;42.30;29.10;;;;;;4929407;28;91880;-84
2021/06/11 13:53:02;;;;;;;8.13;7.63;;;42.50;28.40;;;;;;4924301;28;91756;-84
2021/06/11 13:55:27;;;;;;;8.10;7.60;;;42.40;28.90;;;;;;4929503;28;92142;-84
2021/06/11 13:57:53;;;;;;;7.78;7.38;;;41.90;28.50;;;;;;4924778;28;93295;-84
2021/06/11 14:00:22;;;;;;;8.20;7.70;;;41.60;28.70;;;;;;4928991;28;92827;-86
2021/06/11 14:02:48;;;;;;;7.68;7.15;;;41.40;28.60;;;;;;4915578;28;91990;-84
2021/06/11 14:05:15;;;;;;;7.60;7.20;;;41.30;28.10;;;;;;4927904;28;91608;-84
2021/06/11 14:07:42;;;;;;;8.50;7.90;;;41.20;29.00;;;;;;4938637;28;93718;-83
2021/06/11 14:10:09;;;;;;;7.45;6.95;;;41.10;29.10;;;;;;4917749;28;92468;-85
2021/06/11 14:12:34;;;;;;;7.70;7.30;;;40.60;29.30;;;;;;4918944;28;92045;-83
2021/06/11 14:15:01;;;;;;;7.80;7.30;;;40.10;29.50;;;;;;4921558;28;92088;-86
2021/06/11 14:17:26;;;;;;;8.00;7.50;;;39.30;29.40;;;;;;4927360;28;92227;-85
2021/06/11 14:19:52;;;;;;;7.95;7.45;;;38.80;29.90;;;;;;4927409;28;91754;-85
2021/06/11 14:22:18;;;;;;;7.22;6.82;;;38.40;29.80;;;;;;4931671;28;92674;-85
2021/06/11 14:24:44;;;;;;;7.30;6.82;;;38.10;30.10;;;;;;4932039;28;91715;-85
2021/06/11 14:27:12;;;;;;;7.15;6.75;;;37.90;31.70;;;;;;4917550;28;92738;-86
2021/06/11 14:29:38;;;;;;;7.57;7.05;;;37.80;33.00;;;;;;4914333;28;92071;-83
2021/06/11 14:32:05;;;;;;;7.15;6.75;;;37.50;31.40;;;;;;4927788;28;92263;-85
2021/06/11 14:34:31;;;;;;;7.70;7.10;;;37.20;31.10;;;;;;4916500;28;92054;-85
2021/06/11 14:36:56;;;;;;;7.50;6.95;;;37.00;31.80;;;;;;4924754;28;92113;-86
2021/06/11 14:39:22;;;;;;;7.38;6.88;;;36.80;33.00;;;;;;4918266;28;94833;-83
2021/06/11 14:41:48;;;;;;;7.65;7.15;;;36.60;33.80;;;;;;4926307;28;91687;-85
2021/06/11 14:44:15;;;;;;;7.63;7.07;;;36.30;33.50;;;;;;4919019;28;92033;-83
2021/06/11 14:46:41;;;;;;;7.43;6.88;;;36.10;33.70;;;;;;4920957;28;93321;-84
2021/06/11 14:49:07;;;;;;;7.93;7.35;;;36.10;34.50;;;;;;4917870;28;93842;-86
2021/06/11 14:51:32;;;;;;;7.68;7.13;;;35.80;34.10;;;;;;4924123;28;92047;-86
2021/06/11 14:53:59;;;;;;;7.13;6.72;;;35.40;35.60;;;;;;4927844;28;91831;-83
2021/06/11 14:58:54;;;;;;;7.72;7.05;;;35.10;35.50;;;;;;4923997;28;91986;-85
2021/06/11 15:01:20;;;;;;;7.90;7.38;;;34.90;36.20;;;;;;4934382;28;92165;-86
2021/06/11 15:03:46;;;;;;;6.80;6.40;;;34.70;36.20;;;;;;4928214;28;91370;-86
2021/06/11 15:06:12;;;;;;;7.55;7.05;;;34.90;36.20;;;;;;4932412;28;92087;-85
2021/06/11 15:08:38;;;;;;;7.82;7.32;;;34.70;35.60;;;;;;4930048;28;92401;-84
2021/06/11 15:11:05;;;;;;;7.45;6.95;;;34.30;36.40;;;;;;4924889;28;94119;-85
2021/06/11 15:13:31;;;;;;;8.23;7.60;;;34.00;36.80;;;;;;4930199;28;91422;-84
2021/06/11 15:15:57;;;;;;;7.78;7.20;;;33.50;37.40;;;;;;4918314;28;93441;-84
2021/06/11 15:18:25;;;;;;;8.13;7.50;;;33.00;39.30;;;;;;4934091;28;91662;-86
2021/06/11 15:20:53;;;;;;;7.85;7.25;;;32.60;39.30;;;;;;4921335;28;91900;-85
2021/06/11 15:23:19;;;;;;;7.65;7.07;;;32.30;40.10;;;;;;4918566;28;92395;-85
2021/06/11 15:25:45;;;;;;;7.88;7.28;;;31.80;40.10;;;;;;4935981;28;92753;-85
2021/06/11 15:28:13;;;;;;;8.18;7.47;;;31.60;40.50;;;;;;4915703;28;92082;-86
2021/06/11 15:30:43;;;;;;;7.78;7.18;;;31.30;41.40;;;;;;4921903;28;92016;-86
2021/06/11 15:33:09;;;;;;;7.53;6.90;;;30.90;41.70;;;;;;4926765;28;92468;-85
2021/06/11 15:35:36;;;;;;;7.57;6.93;;;30.50;43.00;;;;;;4927524;28;93587;-85
2021/06/11 15:38:04;;;;;;;8.35;7.75;;;30.20;42.90;;;;;;4922309;28;92117;-85
2021/06/11 15:40:30;;;;;;;7.38;6.88;;;30.00;42.50;;;;;;4922520;28;91914;-86
2021/06/11 15:43:02;;;;;;;8.13;7.53;;;29.70;42.90;;;;;;4926385;28;92109;-85
2021/06/11 15:45:28;;;;;;;8.48;7.45;;;29.50;42.30;;;;;;4926235;28;92528;-85
2021/06/11 15:47:54;;;;;;;8.20;7.60;;;29.30;42.60;;;;;;4925005;28;93243;-85
2021/06/11 15:50:20;;;;;;;7.72;7.13;;;29.10;43.20;;;;;;4927848;28;92071;-86
2021/06/11 15:52:46;;;;;;;7.68;7.07;;;29.00;44.00;;;;;;4912622;28;91966;-85
2021/06/11 15:55:12;;;;;;;8.48;7.68;;;28.80;44.90;;;;;;4928517;28;92168;-84
2021/06/11 15:57:38;;;;;;;7.80;6.82;;;28.50;45.40;;;;;;4929754;28;91866;-84
2021/06/11 16:00:08;;;;;;;8.27;7.50;;;28.20;45.30;;;;;;4929526;28;92415;-85
2021/06/11 16:02:34;;;;;;;8.45;7.72;;;28.20;45.40;;;;;;4926874;28;91887;-86
2021/06/11 16:05:00;;;;;;;7.60;7.00;;;28.20;46.40;;;;;;4929035;28;92287;-84
2021/06/11 16:07:26;;;;;;;7.53;6.88;;;28.30;47.30;;;;;;4907463;28;93817;-84
2021/06/11 16:09:52;;;;;;;7.70;7.10;;;28.40;47.90;;;;;;4924509;28;91996;-85
2021/06/11 16:12:18;;;;;;;7.97;7.32;;;28.40;47.90;;;;;;4933298;28;91710;-82
2021/06/11 16:14:44;;;;;;;7.80;7.10;;;28.50;47.70;;;;;;4926901;28;92788;-85
2021/06/11 16:17:10;;;;;;;7.53;6.72;;;28.60;48.10;;;;;;4930546;28;91307;-84